createdAt,value
2023-03-29T00:02:07.388Z,5.92
2023-03-29T00:04:34.741Z,5.90
2023-03-29T00:07:04.544Z,5.87
2023-03-29T00:09:35.868Z,5.84
2023-03-29T00:12:03.078Z,5.84
2023-03-29T00:14:32.827Z,5.82
2023-03-29T00:16:59.644Z,5.81
2023-03-29T00:19:26.565Z,5.78
2023-03-29T00:21:53.460Z,5.75
2023-03-29T00:24:21.320Z,5.78
2023-03-29T00:26:48.688Z,5.79
2023-03-29T00:29:16.104Z,5.78
2023-03-29T00:31:46.009Z,5.80
2023-03-29T00:34:12.831Z,5.72
2023-03-29T00:36:40.439Z,5.65
2023-03-29T00:39:07.401Z,5.63
2023-03-29T00:41:34.159Z,5.59
2023-03-29T00:44:02.871Z,5.52
2023-03-29T00:46:31.220Z,5.46
2023-03-29T00:49:12.723Z,5.42
2023-03-29T00:51:41.475Z,5.39
2023-03-29T00:54:14.814Z,5.37
2023-03-29T00:56:44.960Z,5.32
2023-03-29T00:59:24.646Z,5.36
2023-03-29T01:01:57.548Z,5.36
2023-03-29T01:04:33.977Z,5.40
2023-03-29T01:07:06.032Z,5.40
2023-03-29T01:09:37.542Z,5.40
2023-03-29T01:12:13.916Z,5.39
2023-03-29T01:14:49.072Z,5.36
2023-03-29T01:17:16.235Z,5.32
2023-03-29T01:19:50.928Z,5.28
2023-03-29T01:22:38.759Z,5.28
2023-03-29T01:25:21.341Z,5.26
2023-03-29T01:28:04.202Z,5.18
2023-03-29T01:30:40.075Z,5.19
2023-03-29T01:33:23.635Z,5.20
2023-03-29T01:36:03.547Z,5.16
2023-03-29T01:38:54.610Z,5.17
2023-03-29T01:41:21.768Z,5.12
2023-03-29T01:43:56.384Z,5.10
2023-03-29T01:46:35.516Z,5.15
2023-03-29T01:49:14.638Z,5.19
2023-03-29T01:51:53.403Z,5.14
2023-03-29T01:54:36.566Z,5.18
2023-03-29T01:57:07.017Z,5.16
2023-03-29T01:59:36.981Z,5.19
2023-03-29T02:02:08.251Z,5.20
2023-03-29T02:04:38.249Z,5.24
2023-03-29T02:07:08.772Z,5.14
2023-03-29T02:09:38.604Z,5.14
2023-03-29T02:12:07.259Z,5.17
2023-03-29T02:14:33.918Z,5.23
2023-03-29T02:17:23.417Z,5.30
2023-03-29T02:20:19.061Z,5.35
2023-03-29T02:23:18.704Z,5.36
2023-03-29T02:25:46.594Z,5.35
2023-03-29T02:28:14.640Z,5.34
2023-03-29T02:30:51.440Z,5.33
2023-03-29T02:33:25.719Z,5.31
2023-03-29T02:35:59.212Z,5.34
2023-03-29T02:38:27.873Z,5.37
2023-03-29T02:40:56.746Z,5.42
2023-03-29T02:43:26.147Z,5.47
2023-03-29T02:45:53.465Z,5.55
2023-03-29T02:48:25.399Z,5.61
2023-03-29T02:50:58.108Z,5.67
2023-03-29T02:53:36.070Z,5.71
2023-03-29T02:56:04.230Z,5.71
2023-03-29T02:58:31.716Z,5.74
2023-03-29T03:01:01.210Z,5.79
2023-03-29T03:03:29.145Z,5.77
2023-03-29T03:05:58.607Z,5.78
2023-03-29T03:08:25.458Z,5.79
2023-03-29T03:10:52.584Z,5.81
2023-03-29T03:13:19.574Z,5.80
2023-03-29T03:15:49.180Z,5.81
2023-03-29T03:18:16.879Z,5.85
2023-03-29T03:20:46.923Z,5.85
2023-03-29T03:23:13.729Z,5.85
2023-03-29T03:25:40.608Z,5.87
2023-03-29T03:28:07.638Z,5.87
2023-03-29T03:30:34.774Z,5.91
2023-03-29T03:33:16.968Z,5.94
2023-03-29T03:36:06.100Z,5.93
2023-03-29T03:38:36.160Z,5.93
2023-03-29T03:41:05.418Z,5.92
2023-03-29T03:43:34.145Z,5.94
2023-03-29T03:46:03.293Z,5.94
2023-03-29T03:48:30.548Z,5.92
2023-03-29T03:51:05.576Z,5.95
2023-03-29T03:53:35.128Z,5.96
2023-03-29T03:56:14.422Z,6.02
2023-03-29T03:59:01.123Z,6.07
2023-03-29T04:01:30.958Z,6.09
2023-03-29T04:04:13.139Z,6.07
2023-03-29T04:06:44.217Z,6.01
2023-03-29T04:09:31.294Z,6.03
2023-03-29T04:12:12.879Z,6.03
2023-03-29T04:14:41.553Z,5.99
2023-03-29T04:17:28.597Z,5.98
2023-03-29T04:19:55.779Z,5.93
2023-03-29T04:22:22.626Z,5.88
2023-03-29T04:24:49.299Z,5.89
2023-03-29T04:27:42.209Z,5.90
2023-03-29T04:30:17.906Z,5.87
2023-03-29T04:33:03.966Z,5.88
2023-03-29T04:35:31.568Z,5.90
2023-03-29T04:37:58.502Z,5.89
2023-03-29T04:40:25.272Z,5.92
2023-03-29T04:43:02.648Z,5.94
2023-03-29T04:45:30.367Z,5.99
2023-03-29T04:48:17.105Z,5.98
2023-03-29T04:50:48.285Z,6.00
2023-03-29T04:53:17.365Z,6.03
2023-03-29T04:55:47.017Z,6.06
2023-03-29T04:58:21.401Z,6.07
2023-03-29T05:00:49.563Z,6.09
2023-03-29T05:03:45.364Z,6.09
2023-03-29T05:06:18.552Z,6.08
2023-03-29T05:08:45.298Z,6.09
2023-03-29T05:11:40.895Z,6.12
2023-03-29T05:14:09.306Z,6.09
2023-03-29T05:16:38.144Z,6.11
2023-03-29T05:19:05.921Z,6.15
2023-03-29T05:21:36.650Z,6.17
2023-03-29T05:24:07.436Z,6.18
2023-03-29T05:26:43.799Z,6.18
2023-03-29T05:29:10.718Z,6.23
2023-03-29T05:31:37.920Z,6.26
2023-03-29T05:34:05.514Z,6.29
2023-03-29T05:36:34.706Z,6.34
2023-03-29T05:39:01.940Z,6.37
2023-03-29T05:41:28.942Z,6.37
2023-03-29T05:44:34.340Z,6.37
2023-03-29T05:47:12.011Z,6.37
2023-03-29T05:49:39.467Z,6.34
2023-03-29T05:52:11.642Z,6.33
2023-03-29T05:54:39.053Z,6.33
2023-03-29T05:57:08.501Z,6.33
2023-03-29T05:59:37.072Z,6.29
2023-03-29T06:02:04.958Z,6.29
2023-03-29T06:04:33.961Z,6.31
2023-03-29T06:07:19.200Z,6.32
2023-03-29T06:10:06.304Z,6.36
2023-03-29T06:12:33.361Z,6.34
2023-03-29T06:15:04.837Z,6.39
2023-03-29T06:17:47.535Z,6.39
2023-03-29T06:20:14.958Z,6.39
2023-03-29T06:22:46.742Z,6.40
2023-03-29T06:25:15.455Z,6.40
2023-03-29T06:27:46.755Z,6.41
2023-03-29T06:30:16.936Z,6.45
2023-03-29T06:32:49.860Z,6.48
2023-03-29T06:35:49.686Z,6.51
2023-03-29T06:38:21.343Z,6.53
2023-03-29T06:41:08.250Z,6.56
2023-03-29T06:43:55.324Z,6.56
2023-03-29T06:46:24.839Z,6.59
2023-03-29T06:48:57.101Z,6.58
2023-03-29T06:51:32.787Z,6.62
2023-03-29T06:53:59.701Z,6.62
2023-03-29T06:56:26.940Z,6.63
2023-03-29T06:58:59.974Z,6.62
2023-03-29T07:01:35.079Z,6.63
2023-03-29T07:04:13.949Z,6.64
2023-03-29T07:07:04.089Z,6.63
2023-03-29T07:09:33.580Z,6.64
2023-03-29T07:12:18.823Z,6.66
2023-03-29T07:14:46.716Z,6.70
2023-03-29T07:17:14.917Z,6.72
2023-03-29T07:19:42.196Z,6.72
2023-03-29T07:22:31.984Z,6.77
2023-03-29T07:25:01.091Z,6.77
2023-03-29T07:27:29.145Z,6.79
2023-03-29T07:29:57.005Z,6.76
2023-03-29T07:32:24.231Z,6.73
2023-03-29T07:35:10.846Z,6.81
2023-03-29T07:37:38.093Z,6.79
2023-03-29T07:40:18.257Z,6.86
2023-03-29T07:42:57.438Z,6.91
2023-03-29T07:45:28.677Z,6.95
2023-03-29T07:48:09.010Z,6.92
2023-03-29T07:50:48.217Z,6.95
2023-03-29T07:53:17.390Z,6.93
2023-03-29T07:55:47.745Z,6.91
2023-03-29T07:58:47.152Z,7.00
2023-03-29T08:01:18.902Z,7.04
2023-03-29T08:04:05.137Z,7.11
2023-03-29T08:06:50.612Z,7.13
2023-03-29T08:09:18.829Z,7.16
2023-03-29T08:11:45.587Z,7.19
2023-03-29T08:14:19.643Z,7.21
2023-03-29T08:16:59.211Z,7.24
2023-03-29T08:19:26.279Z,7.29
2023-03-29T08:22:03.906Z,7.30
2023-03-29T08:24:48.488Z,7.30
2023-03-29T08:27:15.704Z,7.34
2023-03-29T08:29:42.732Z,7.41
2023-03-29T08:32:09.621Z,7.40
2023-03-29T08:34:37.236Z,7.34
2023-03-29T08:37:21.038Z,7.38
2023-03-29T08:39:50.836Z,7.41
2023-03-29T08:42:57.417Z,7.45
2023-03-29T08:46:06.332Z,7.54
2023-03-29T08:48:53.764Z,7.53
2023-03-29T08:51:28.286Z,7.65
2023-03-29T08:54:06.411Z,7.61
2023-03-29T08:57:01.207Z,7.56
2023-03-29T08:59:33.179Z,7.63
2023-03-29T09:02:06.047Z,7.59
2023-03-29T09:04:37.737Z,7.59
2023-03-29T09:07:26.575Z,7.60
2023-03-29T09:09:54.894Z,7.51
2023-03-29T09:13:00.259Z,7.54
2023-03-29T09:15:40.221Z,7.60
2023-03-29T09:18:54.122Z,7.71
2023-03-29T09:21:27.442Z,7.68
2023-03-29T09:24:20.868Z,7.71
2023-03-29T09:27:05.294Z,7.77
2023-03-29T09:29:56.750Z,7.82
2023-03-29T09:32:51.749Z,7.83
2023-03-29T09:35:30.250Z,7.94
2023-03-29T09:37:58.069Z,7.93
2023-03-29T09:40:32.887Z,7.95
2023-03-29T09:43:18.445Z,7.96
2023-03-29T09:45:52.302Z,7.97
2023-03-29T09:48:21.298Z,7.86
2023-03-29T09:50:55.942Z,7.88
2023-03-29T09:53:22.975Z,7.88
2023-03-29T09:56:15.431Z,7.83
2023-03-29T09:58:51.340Z,7.78
2023-03-29T10:01:19.830Z,7.83
2023-03-29T10:03:52.323Z,7.82
2023-03-29T10:06:23.847Z,7.76
2023-03-29T10:08:57.237Z,7.69
2023-03-29T10:11:32.950Z,7.69
2023-03-29T10:14:40.537Z,7.77
2023-03-29T10:17:21.860Z,7.74
2023-03-29T10:19:55.735Z,7.81
2023-03-29T10:22:28.497Z,7.72
2023-03-29T10:24:58.012Z,7.72
2023-03-29T10:27:28.244Z,7.67
2023-03-29T10:29:56.653Z,7.66
2023-03-29T10:32:34.270Z,7.74
2023-03-29T10:35:26.085Z,7.76
2023-03-29T10:37:57.611Z,7.76
2023-03-29T10:40:31.896Z,7.70
2023-03-29T10:43:12.876Z,7.82
2023-03-29T10:45:41.086Z,7.83
2023-03-29T10:48:13.668Z,7.78
2023-03-29T10:50:40.664Z,7.79
2023-03-29T10:53:21.843Z,7.82
2023-03-29T10:56:16.185Z,7.89
2023-03-29T10:58:53.057Z,7.85
2023-03-29T11:01:58.305Z,7.92
2023-03-29T11:04:34.545Z,7.92
2023-03-29T11:07:12.146Z,7.96
2023-03-29T11:09:42.144Z,7.97
2023-03-29T11:12:31.225Z,7.93
2023-03-29T11:15:19.065Z,7.90
2023-03-29T11:18:09.505Z,7.90
2023-03-29T11:20:45.172Z,7.90
2023-03-29T11:23:39.899Z,7.92
2023-03-29T11:26:29.169Z,7.89
2023-03-29T11:29:05.831Z,7.91
2023-03-29T11:32:23.795Z,7.91
2023-03-29T11:35:29.164Z,7.89
2023-03-29T11:38:17.988Z,7.96
2023-03-29T11:41:15.790Z,8.03
2023-03-29T11:43:45.903Z,7.94
2023-03-29T11:46:20.193Z,7.98
2023-03-29T11:49:00.727Z,8.00
2023-03-29T11:51:36.611Z,7.95
2023-03-29T11:54:12.905Z,7.97
2023-03-29T11:56:59.639Z,7.94
2023-03-29T11:59:51.213Z,7.97
2023-03-29T12:02:17.914Z,8.08
2023-03-29T12:04:54.935Z,8.10
2023-03-29T12:07:35.900Z,8.11
2023-03-29T12:10:27.337Z,8.16
2023-03-29T12:13:21.100Z,8.25
2023-03-29T12:16:13.757Z,8.27
2023-03-29T12:18:42.981Z,8.18
2023-03-29T12:21:14.896Z,8.23
2023-03-29T12:23:43.862Z,8.29
2023-03-29T12:26:29.065Z,8.38
2023-03-29T12:29:04.210Z,8.49
2023-03-29T12:31:42.028Z,8.51
2023-03-29T12:34:29.690Z,8.46
2023-03-29T12:37:32.209Z,8.61
2023-03-29T12:40:20.025Z,8.59
2023-03-29T12:43:23.287Z,8.62
2023-03-29T12:46:11.462Z,8.75
2023-03-29T12:48:41.600Z,8.74
2023-03-29T12:51:14.952Z,8.73
2023-03-29T12:53:46.349Z,8.76
2023-03-29T12:56:23.759Z,8.76
2023-03-29T12:58:53.527Z,8.63
2023-03-29T13:01:37.051Z,8.59
2023-03-29T13:04:49.581Z,8.55
2023-03-29T13:07:22.313Z,8.41
2023-03-29T13:09:52.915Z,8.42
2023-03-29T13:12:20.254Z,8.34
2023-03-29T13:15:02.909Z,8.38
2023-03-29T13:17:49.357Z,8.40
2023-03-29T13:20:19.189Z,8.32
2023-03-29T13:22:51.848Z,8.31
2023-03-29T13:25:38.527Z,8.20
2023-03-29T13:28:27.410Z,8.11
2023-03-29T13:31:39.126Z,8.11
2023-03-29T13:34:31.076Z,7.96
2023-03-29T13:37:35.698Z,8.00
2023-03-29T13:40:02.447Z,8.09
2023-03-29T13:42:35.556Z,7.94
2023-03-29T13:45:15.439Z,8.01
2023-03-29T13:47:54.935Z,7.90
2023-03-29T13:50:40.377Z,7.98
2023-03-29T13:53:15.565Z,7.98
2023-03-29T13:55:52.414Z,7.99
2023-03-29T13:58:51.365Z,7.96
2023-03-29T14:01:28.917Z,7.92
2023-03-29T14:03:56.767Z,8.00
2023-03-29T14:06:29.324Z,7.98
2023-03-29T14:08:56.390Z,7.96
2023-03-29T14:11:29.092Z,7.94
2023-03-29T14:14:01.526Z,7.92
2023-03-29T14:16:32.867Z,7.97
2023-03-29T14:18:59.958Z,8.03
2023-03-29T14:21:26.874Z,8.02
2023-03-29T14:24:23.173Z,8.01
2023-03-29T14:26:50.051Z,8.04
2023-03-29T14:29:18.282Z,8.11
2023-03-29T14:31:45.513Z,8.06
2023-03-29T14:34:15.128Z,8.05
2023-03-29T14:36:45.156Z,8.08
2023-03-29T14:39:17.437Z,8.13
2023-03-29T14:41:53.323Z,8.13
2023-03-29T14:44:27.036Z,8.11
2023-03-29T14:46:54.911Z,8.17
2023-03-29T14:49:22.978Z,8.16
2023-03-29T14:51:50.986Z,8.09
2023-03-29T14:54:25.609Z,8.16
2023-03-29T14:56:53.131Z,8.11
2023-03-29T14:59:37.650Z,8.14
2023-03-29T15:02:21.859Z,8.08
2023-03-29T15:05:04.626Z,8.12
2023-03-29T15:07:33.573Z,8.11
2023-03-29T15:10:02.250Z,8.20
2023-03-29T15:12:30.775Z,8.13
2023-03-29T15:14:59.604Z,8.04
2023-03-29T15:17:50.123Z,8.05
2023-03-29T15:20:33.400Z,7.98
2023-03-29T15:23:07.837Z,7.98
2023-03-29T15:25:37.383Z,8.03
2023-03-29T15:28:05.016Z,7.95
2023-03-29T15:30:44.237Z,8.05
2023-03-29T15:33:21.086Z,8.02
2023-03-29T15:35:51.538Z,8.04
2023-03-29T15:38:27.702Z,7.98
2023-03-29T15:41:04.081Z,8.00
2023-03-29T15:43:31.030Z,8.01
2023-03-29T15:45:58.016Z,7.98
2023-03-29T15:48:29.040Z,8.04
2023-03-29T15:50:57.194Z,7.99
2023-03-29T15:53:24.963Z,7.90
2023-03-29T15:55:54.647Z,7.98
2023-03-29T15:58:25.649Z,7.98
2023-03-29T16:01:02.602Z,7.92
2023-03-29T16:03:29.732Z,8.00
2023-03-29T16:05:57.051Z,8.00
2023-03-29T16:08:25.057Z,8.10
2023-03-29T16:10:52.122Z,8.14
2023-03-29T16:13:19.007Z,8.14
2023-03-29T16:15:46.022Z,8.11
2023-03-29T16:18:12.727Z,8.12
2023-03-29T16:20:39.662Z,8.02
2023-03-29T16:23:11.459Z,7.99
2023-03-29T16:25:39.971Z,8.09
2023-03-29T16:28:09.083Z,7.97
2023-03-29T16:30:37.543Z,7.96
2023-03-29T16:33:08.474Z,8.00
2023-03-29T16:35:40.416Z,7.95
2023-03-29T16:38:07.761Z,7.89
2023-03-29T16:40:35.661Z,7.86
2023-03-29T16:43:02.934Z,7.92
2023-03-29T16:45:29.708Z,7.91
2023-03-29T16:47:57.931Z,7.92
2023-03-29T16:50:24.862Z,7.84
2023-03-29T16:52:52.639Z,7.83
2023-03-29T16:55:19.844Z,7.87
2023-03-29T16:57:48.543Z,7.84
2023-03-29T17:00:17.112Z,7.80
2023-03-29T17:02:44.168Z,7.74
2023-03-29T17:05:12.486Z,7.81
2023-03-29T17:07:39.642Z,7.81
2023-03-29T17:10:08.269Z,7.89
2023-03-29T17:12:36.166Z,7.93
2023-03-29T17:15:05.162Z,7.98
2023-03-29T17:17:32.151Z,7.98
2023-03-29T17:19:58.857Z,7.93
2023-03-29T17:22:25.899Z,7.94
2023-03-29T17:24:52.653Z,7.93
2023-03-29T17:27:19.557Z,7.96
2023-03-29T17:29:46.286Z,7.96
2023-03-29T17:32:13.085Z,7.88
2023-03-29T17:34:39.820Z,7.87
2023-03-29T17:37:06.552Z,7.84
2023-03-29T17:39:37.154Z,7.83
2023-03-29T17:42:05.365Z,7.85
2023-03-29T17:44:33.340Z,7.84
2023-03-29T17:47:01.370Z,7.89
2023-03-29T17:49:28.533Z,7.78
2023-03-29T17:51:55.446Z,7.85
2023-03-29T17:54:22.163Z,7.85
2023-03-29T17:56:48.952Z,7.85
2023-03-29T17:59:16.325Z,7.83
2023-03-29T18:01:43.444Z,7.91
2023-03-29T18:04:10.614Z,7.90
2023-03-29T18:06:37.486Z,7.93
2023-03-29T18:09:04.745Z,7.94
2023-03-29T18:11:31.629Z,7.96
2023-03-29T18:14:00.336Z,8.01
2023-03-29T18:16:27.779Z,8.01
2023-03-29T18:18:54.565Z,7.98
2023-03-29T18:21:22.037Z,8.00
2023-03-29T18:23:49.890Z,7.96
2023-03-29T18:26:17.624Z,7.97
2023-03-29T18:28:48.665Z,7.99
2023-03-29T18:31:15.717Z,8.02
2023-03-29T18:33:42.561Z,8.00
2023-03-29T18:36:13.219Z,7.96
2023-03-29T18:38:43.416Z,7.95
2023-03-29T18:41:12.492Z,7.88
2023-03-29T18:43:40.581Z,7.95
2023-03-29T18:46:08.360Z,7.97
2023-03-29T18:48:38.955Z,8.02
2023-03-29T18:51:07.493Z,8.11
2023-03-29T18:53:35.861Z,8.11
2023-03-29T18:56:04.074Z,8.10
2023-03-29T18:58:31.257Z,8.11
2023-03-29T19:01:05.937Z,8.02
2023-03-29T19:03:34.481Z,8.02
2023-03-29T19:06:02.742Z,8.03
2023-03-29T19:08:29.790Z,8.00
2023-03-29T19:11:05.564Z,8.01
2023-03-29T19:13:32.265Z,8.02
2023-03-29T19:15:59.268Z,8.01
2023-03-29T19:18:26.695Z,7.97
2023-03-29T19:20:54.343Z,8.01
2023-03-29T19:23:22.291Z,7.97
2023-03-29T19:25:57.279Z,7.97
2023-03-29T19:28:25.026Z,7.96
2023-03-29T19:30:51.980Z,7.93
2023-03-29T19:33:20.008Z,7.92
2023-03-29T19:35:47.164Z,7.89
2023-03-29T19:38:13.997Z,7.91
2023-03-29T19:40:45.268Z,7.94
2023-03-29T19:43:16.388Z,7.93
2023-03-29T19:45:44.334Z,7.92
2023-03-29T19:48:21.091Z,7.94
2023-03-29T19:50:48.865Z,7.90
2023-03-29T19:53:15.747Z,7.86
2023-03-29T19:55:44.202Z,7.93
2023-03-29T19:58:11.038Z,7.97
2023-03-29T20:00:38.982Z,7.92
2023-03-29T20:03:09.745Z,7.92
2023-03-29T20:05:37.486Z,7.89
2023-03-29T20:08:04.256Z,7.86
2023-03-29T20:10:31.077Z,7.91
2023-03-29T20:12:57.854Z,7.85
2023-03-29T20:15:27.461Z,7.88
2023-03-29T20:17:59.147Z,7.86
2023-03-29T20:20:27.409Z,7.88
2023-03-29T20:22:58.102Z,7.92
2023-03-29T20:25:25.069Z,7.88
2023-03-29T20:27:53.188Z,7.90
2023-03-29T20:30:20.616Z,7.87
2023-03-29T20:32:47.549Z,7.84
2023-03-29T20:35:14.419Z,7.87
2023-03-29T20:37:41.434Z,7.90
2023-03-29T20:40:08.853Z,7.91
2023-03-29T20:42:36.753Z,7.82
2023-03-29T20:45:04.504Z,7.81
2023-03-29T20:47:31.619Z,7.76
2023-03-29T20:49:58.861Z,7.78
2023-03-29T20:52:25.563Z,7.74
2023-03-29T20:54:52.267Z,7.72
2023-03-29T20:57:20.969Z,7.70
2023-03-29T20:59:49.196Z,7.69
2023-03-29T21:02:21.756Z,7.74
2023-03-29T21:04:52.868Z,7.80
2023-03-29T21:07:21.497Z,7.85
2023-03-29T21:09:49.963Z,7.88
2023-03-29T21:12:17.512Z,7.90
2023-03-29T21:14:44.858Z,7.93
2023-03-29T21:17:11.765Z,7.87
2023-03-29T21:19:39.456Z,7.89
2023-03-29T21:22:06.827Z,7.98
2023-03-29T21:24:34.145Z,8.01
2023-03-29T21:27:00.939Z,8.00
2023-03-29T21:29:28.013Z,8.06
2023-03-29T21:31:55.177Z,8.12
2023-03-29T21:34:22.182Z,8.15
2023-03-29T21:36:49.398Z,8.15
2023-03-29T21:39:16.325Z,8.20
2023-03-29T21:41:43.340Z,8.17
2023-03-29T21:44:10.132Z,8.13
2023-03-29T21:46:37.148Z,8.15
2023-03-29T21:49:03.982Z,8.16
2023-03-29T21:51:30.931Z,8.16
2023-03-29T21:53:57.614Z,8.20
2023-03-29T21:56:24.477Z,8.19
2023-03-29T21:58:51.167Z,8.09
2023-03-29T22:01:18.079Z,8.02
2023-03-29T22:03:44.914Z,7.93
2023-03-29T22:06:13.688Z,7.90
2023-03-29T22:08:40.814Z,7.91
2023-03-29T22:11:14.373Z,7.92
2023-03-29T22:13:43.062Z,7.90
2023-03-29T22:16:14.016Z,7.88
2023-03-29T22:18:45.067Z,7.82
2023-03-29T22:21:15.232Z,7.79
2023-03-29T22:23:47.145Z,7.78
2023-03-29T22:26:16.204Z,7.77
2023-03-29T22:28:43.309Z,7.75
2023-03-29T22:31:13.779Z,7.73
2023-03-29T22:33:41.049Z,7.69
2023-03-29T22:36:18.416Z,7.70
2023-03-29T22:38:46.249Z,7.66
2023-03-29T22:41:14.034Z,7.62
2023-03-29T22:43:41.291Z,7.54
2023-03-29T22:46:10.267Z,7.53
2023-03-29T22:48:37.643Z,7.48
2023-03-29T22:51:05.758Z,7.45
2023-03-29T22:53:33.436Z,7.41
2023-03-29T22:56:00.422Z,7.31
2023-03-29T22:58:27.240Z,7.28
2023-03-29T23:00:54.080Z,7.25
2023-03-29T23:03:23.843Z,7.24
2023-03-29T23:05:55.826Z,7.21
2023-03-29T23:08:24.137Z,7.15
2023-03-29T23:10:51.167Z,7.12
2023-03-29T23:13:28.738Z,7.15
2023-03-29T23:15:58.974Z,7.19
2023-03-29T23:18:28.721Z,7.20
2023-03-29T23:20:57.358Z,7.12
2023-03-29T23:23:26.755Z,7.10
2023-03-29T23:25:55.671Z,7.11
2023-03-29T23:28:25.126Z,7.27
2023-03-29T23:31:03.667Z,7.31
2023-03-29T23:33:33.746Z,7.39
2023-03-29T23:36:04.802Z,7.51
2023-03-29T23:38:33.314Z,7.53
2023-03-29T23:41:02.384Z,7.52
2023-03-29T23:43:34.173Z,7.57
2023-03-29T23:46:03.369Z,7.62
2023-03-29T23:48:30.568Z,7.68
2023-03-29T23:50:57.514Z,7.66
2023-03-29T23:53:29.000Z,7.64
2023-03-29T23:55:58.376Z,7.65
2023-03-29T23:58:25.100Z,7.61
